createdAt,value
2022-08-19T00:04:30.513Z,14.32
2022-08-19T00:09:32.422Z,14.82
2022-08-19T00:14:33.894Z,16.13
2022-08-19T00:19:38.591Z,16.38
2022-08-19T00:24:40.192Z,12.82
2022-08-19T00:29:41.685Z,14.32
2022-08-19T00:34:43.256Z,15.82
2022-08-19T00:39:44.681Z,15.43
2022-08-19T00:44:46.240Z,15.15
2022-08-19T00:49:54.789Z,15.60
2022-08-19T00:54:58.307Z,15.50
2022-08-19T01:00:03.100Z,19.48
2022-08-19T01:05:09.405Z,14.90
2022-08-19T01:10:20.456Z,14.63
2022-08-19T01:15:39.492Z,17.02
2022-08-19T01:20:42.348Z,15.17
2022-08-19T01:25:50.792Z,13.93
2022-08-19T01:30:53.075Z,15.23
2022-08-19T01:36:06.056Z,15.70
2022-08-19T01:41:11.137Z,15.15
2022-08-19T01:46:13.071Z,16.33
2022-08-19T01:51:15.127Z,15.85
2022-08-19T01:56:17.464Z,15.30
2022-08-19T02:01:19.080Z,16.58
2022-08-19T02:06:20.914Z,17.45
2022-08-19T02:11:32.750Z,16.48
2022-08-19T02:16:35.528Z,19.75
2022-08-19T02:21:37.199Z,19.98
2022-08-19T02:26:38.745Z,18.77
2022-08-19T02:31:41.132Z,19.92
2022-08-19T02:36:42.728Z,18.85
2022-08-19T02:41:44.331Z,17.25
2022-08-19T02:46:49.633Z,16.45
2022-08-19T02:51:53.086Z,19.92
2022-08-19T02:56:54.601Z,21.48
2022-08-19T03:01:56.546Z,18.05
2022-08-19T03:07:02.558Z,17.05
2022-08-19T03:12:12.458Z,19.77
2022-08-19T03:17:14.085Z,17.83
2022-08-19T03:22:15.533Z,20.05
2022-08-19T03:27:16.982Z,25.10
2022-08-19T03:32:32.431Z,21.92
2022-08-19T03:37:34.875Z,21.50
2022-08-19T03:42:48.609Z,22.00
2022-08-19T03:47:50.919Z,23.08
2022-08-19T03:52:53.124Z,22.83
2022-08-19T03:57:58.978Z,25.52
2022-08-19T04:03:01.207Z,23.05
2022-08-19T04:08:03.026Z,23.73
2022-08-19T04:13:08.126Z,28.88
2022-08-19T04:18:10.720Z,34.28
2022-08-19T04:23:14.171Z,34.58
2022-08-19T04:28:15.944Z,36.75
2022-08-19T04:33:26.795Z,31.42
2022-08-19T04:38:30.306Z,39.38
2022-08-19T04:43:35.903Z,35.72
2022-08-19T04:48:49.262Z,40.22
2022-08-19T04:53:51.613Z,34.38
2022-08-19T04:58:55.573Z,33.88
2022-08-19T05:03:58.539Z,41.53
2022-08-19T05:09:05.314Z,40.03
2022-08-19T05:14:08.334Z,42.40
2022-08-19T05:19:09.897Z,37.38
2022-08-19T05:24:11.819Z,38.97
2022-08-19T05:29:15.820Z,38.97
2022-08-19T05:34:20.432Z,38.40
2022-08-19T05:39:22.523Z,45.42
2022-08-19T05:44:26.084Z,44.75
2022-08-19T05:49:28.704Z,43.70
2022-08-19T05:54:30.245Z,47.38
2022-08-19T05:59:31.869Z,47.97
2022-08-19T06:04:34.282Z,47.55
2022-08-19T06:09:35.964Z,49.05
2022-08-19T06:14:41.815Z,47.17
2022-08-19T06:19:43.586Z,45.08
2022-08-19T06:24:45.048Z,43.97
2022-08-19T06:29:46.975Z,41.70
2022-08-19T06:34:48.433Z,41.67
2022-08-19T06:39:50.960Z,41.22
2022-08-19T06:44:53.284Z,42.17
2022-08-19T06:50:01.273Z,44.38
2022-08-19T06:55:06.094Z,38.75
2022-08-19T07:00:12.847Z,37.30
2022-08-19T07:05:14.617Z,35.22
2022-08-19T07:10:16.292Z,36.95
2022-08-19T07:15:18.898Z,36.20
2022-08-19T07:20:20.766Z,36.42
2022-08-19T07:25:32.083Z,34.80
2022-08-19T07:30:38.051Z,33.90
2022-08-19T07:35:39.979Z,36.13
2022-08-19T07:40:41.598Z,36.17
2022-08-19T07:45:43.361Z,35.05
2022-08-19T07:50:44.964Z,35.17
2022-08-19T07:55:46.511Z,36.00
2022-08-19T08:00:50.528Z,38.97
2022-08-19T08:05:52.287Z,39.30
2022-08-19T08:10:56.773Z,40.22
2022-08-19T08:15:58.629Z,42.33
2022-08-19T08:21:00.674Z,39.40
2022-08-19T08:26:02.119Z,42.30
2022-08-19T08:31:03.537Z,43.50
2022-08-19T08:36:12.641Z,42.43
2022-08-19T08:41:14.028Z,40.85
2022-08-19T08:46:32.333Z,39.20
2022-08-19T08:51:47.614Z,40.53
2022-08-19T08:56:52.478Z,37.63
2022-08-19T09:01:55.187Z,42.42
2022-08-19T09:07:22.870Z,39.88
2022-08-19T09:12:53.514Z,41.67
2022-08-19T09:17:55.032Z,36.53
2022-08-19T09:22:56.614Z,36.17
2022-08-19T09:28:02.867Z,30.95
2022-08-19T09:38:08.870Z,33.22
2022-08-19T09:43:13.229Z,36.15
2022-08-19T09:48:19.098Z,32.42
2022-08-19T09:53:25.401Z,27.35
2022-08-19T09:58:27.125Z,24.52
2022-08-19T10:03:30.471Z,19.38
2022-08-19T10:08:37.855Z,20.75
2022-08-19T10:13:39.277Z,23.38
2022-08-19T10:18:40.949Z,16.50
2022-08-19T10:23:48.115Z,17.05
2022-08-19T10:28:50.940Z,17.55
2022-08-19T10:33:53.491Z,14.88
2022-08-19T10:38:58.463Z,18.30
2022-08-19T10:44:04.446Z,17.35
2022-08-19T10:49:06.794Z,18.02
2022-08-19T10:54:12.388Z,19.40
2022-08-19T10:59:16.251Z,18.83
2022-08-19T11:04:19.331Z,22.08
2022-08-19T11:09:24.117Z,19.95
2022-08-19T11:14:25.984Z,23.00
2022-08-19T11:19:28.356Z,16.73
2022-08-19T11:24:30.849Z,17.20
2022-08-19T11:29:33.756Z,17.92
2022-08-19T11:34:36.113Z,17.58
2022-08-19T11:39:38.605Z,17.75
2022-08-19T11:44:41.421Z,18.23
2022-08-19T11:49:42.859Z,18.67
2022-08-19T11:54:44.248Z,14.73
2022-08-19T11:59:51.020Z,14.63
2022-08-19T12:04:52.453Z,14.55
2022-08-19T12:09:53.870Z,15.55
2022-08-19T12:14:56.523Z,14.70
2022-08-19T12:19:58.209Z,15.32
2022-08-19T12:24:59.622Z,13.50
2022-08-19T12:30:01.104Z,11.40
2022-08-19T12:35:02.930Z,12.25
2022-08-19T12:40:04.924Z,14.02
2022-08-19T12:45:06.992Z,12.60
2022-08-19T12:50:11.239Z,11.05
2022-08-19T12:55:12.669Z,13.88
2022-08-19T13:00:17.308Z,14.40
2022-08-19T13:05:22.545Z,12.15
2022-08-19T13:10:32.510Z,15.15
2022-08-19T13:15:36.217Z,12.85
2022-08-19T13:20:38.835Z,14.45
2022-08-19T13:25:40.293Z,13.98
2022-08-19T13:30:41.837Z,10.50
2022-08-19T13:35:45.319Z,12.32
2022-08-19T13:40:47.665Z,12.18
2022-08-19T13:45:50.026Z,12.20
2022-08-19T13:50:51.480Z,12.60
2022-08-19T13:55:52.989Z,10.82
2022-08-19T14:00:54.504Z,8.43
2022-08-19T14:05:56.003Z,10.27
2022-08-19T14:10:57.507Z,11.20
2022-08-19T14:15:58.999Z,12.13
2022-08-19T14:21:01.270Z,14.88
2022-08-19T14:26:11.926Z,10.48
2022-08-19T14:31:15.973Z,9.15
2022-08-19T14:36:18.692Z,12.43
2022-08-19T14:41:23.477Z,12.77
2022-08-19T14:46:28.202Z,10.45
2022-08-19T14:51:31.749Z,9.90
2022-08-19T14:56:33.269Z,9.57
2022-08-19T15:01:34.872Z,9.65
2022-08-19T15:06:37.050Z,10.50
2022-08-19T15:11:38.855Z,11.25
2022-08-19T15:16:40.343Z,8.18
2022-08-19T15:21:41.986Z,10.43
2022-08-19T15:26:44.700Z,9.32
2022-08-19T15:31:46.144Z,8.27
2022-08-19T15:36:50.853Z,11.23
2022-08-19T15:41:52.362Z,7.35
2022-08-19T15:46:54.536Z,7.63
2022-08-19T15:51:56.031Z,8.50
2022-08-19T15:56:58.474Z,8.18
2022-08-19T16:02:00.167Z,7.28
2022-08-19T16:07:02.518Z,7.88
2022-08-19T16:12:05.763Z,7.70
2022-08-19T16:17:07.203Z,6.65
2022-08-19T16:22:08.890Z,7.00
2022-08-19T16:27:10.346Z,7.45
2022-08-19T16:32:12.208Z,8.93
2022-08-19T16:37:14.242Z,9.05
2022-08-19T16:42:15.680Z,6.80
2022-08-19T16:47:17.095Z,7.20
2022-08-19T16:52:19.214Z,11.02
2022-08-19T16:57:20.900Z,8.15
2022-08-19T17:02:22.717Z,10.77
2022-08-19T17:07:24.119Z,5.97
2022-08-19T17:12:30.268Z,5.18
2022-08-19T17:17:32.955Z,5.40
2022-08-19T17:22:35.411Z,6.75
2022-08-19T17:27:37.457Z,6.40
2022-08-19T17:32:38.937Z,8.32
2022-08-19T17:37:40.567Z,6.55
2022-08-19T17:42:42.137Z,5.85
2022-08-19T17:47:43.622Z,5.82
2022-08-19T17:52:45.102Z,6.85
2022-08-19T17:57:46.924Z,6.30
2022-08-19T18:02:51.913Z,7.15
2022-08-19T18:07:53.881Z,6.07
2022-08-19T18:12:55.827Z,9.75
2022-08-19T18:17:57.574Z,7.43
2022-08-19T18:22:58.982Z,7.70
2022-08-19T18:28:20.364Z,6.97
2022-08-19T18:33:21.902Z,6.43
2022-08-19T18:38:23.393Z,5.93
2022-08-19T18:43:24.801Z,5.85
2022-08-19T18:48:28.232Z,7.75
2022-08-19T18:53:33.815Z,4.57
2022-08-19T18:58:37.183Z,6.25
2022-08-19T19:03:41.660Z,5.32
2022-08-19T19:08:43.491Z,6.47
2022-08-19T19:13:47.278Z,5.15
2022-08-19T19:18:49.908Z,6.65
2022-08-19T19:23:53.566Z,6.25
2022-08-19T19:28:55.395Z,4.78
2022-08-19T19:33:57.160Z,7.55
2022-08-19T19:38:58.951Z,5.68
2022-08-19T19:44:30.165Z,6.20
2022-08-19T19:49:21.969Z,6.72
2022-08-19T19:54:26.608Z,7.40
2022-08-19T19:59:28.134Z,5.15
2022-08-19T20:04:29.736Z,6.30
2022-08-19T20:09:49.705Z,7.00
2022-08-19T20:14:52.735Z,6.13
2022-08-19T20:19:54.271Z,6.75
2022-08-19T20:24:55.763Z,6.25
2022-08-19T20:29:57.607Z,3.90
2022-08-19T20:34:59.935Z,4.78
2022-08-19T20:40:01.451Z,5.57
2022-08-19T20:45:04.497Z,5.57
2022-08-19T20:50:24.381Z,4.57
2022-08-19T20:55:28.814Z,5.55
2022-08-19T21:00:53.514Z,5.35
2022-08-19T21:05:59.126Z,6.03
2022-08-19T21:11:02.174Z,7.50
2022-08-19T21:16:04.049Z,6.13
2022-08-19T21:21:10.612Z,6.22
2022-08-19T21:26:12.046Z,5.13
2022-08-19T21:31:13.502Z,5.57
2022-08-19T21:36:15.016Z,6.38
2022-08-19T21:41:16.464Z,6.95
2022-08-19T21:46:18.047Z,5.25
2022-08-19T21:51:19.574Z,6.25
2022-08-19T21:56:22.669Z,6.57
2022-08-19T22:01:24.188Z,5.50
2022-08-19T22:06:25.960Z,5.68
2022-08-19T22:11:27.887Z,5.05
2022-08-19T22:16:29.351Z,7.22
2022-08-19T22:21:39.755Z,5.03
2022-08-19T22:26:42.085Z,6.70
2022-08-19T22:31:44.813Z,5.80
2022-08-19T22:36:46.333Z,7.40
2022-08-19T22:41:47.770Z,6.80
2022-08-19T22:46:49.629Z,7.28
2022-08-19T22:51:51.078Z,10.73
2022-08-19T22:56:52.719Z,5.68
2022-08-19T23:01:54.296Z,6.40
2022-08-19T23:06:55.990Z,7.65
2022-08-19T23:11:57.415Z,9.45
2022-08-19T23:16:59.422Z,7.53
2022-08-19T23:22:01.314Z,8.35
2022-08-19T23:27:02.747Z,9.77
2022-08-19T23:32:04.198Z,7.72
2022-08-19T23:37:05.946Z,8.93
2022-08-19T23:42:11.248Z,9.25
2022-08-19T23:47:13.360Z,9.05
2022-08-19T23:52:14.861Z,6.82
2022-08-19T23:57:16.370Z,8.13
